Time;durP1;ratioP1;P1;durP2;ratioP2;P2;SDS_P1;SDS_P2;PMS_P1;PMS_P2;Temp;Humidity;BMP_temperature;BMP_pressure;BME280_temperature;BME280_humidity;BME280_pressure;Samples;Min_cycle;Max_cycle;Signal;HPM_P1;HPM_P2
2021/09/12 00:00:06;;;;;;;37.85;26.27;;;;;;;;;;388216;137;863639;-58
2021/09/12 00:01:07;;;;;;;32.43;19.67;;;;;;;;;;385016;137;856110;-58
2021/09/12 00:02:09;;;;;;;38.04;24.56;;;;;;;;;;382125;138;856727;-58
2021/09/12 00:03:10;;;;;;;35.64;24.83;;;;;;;;;;378542;138;856115;-59
2021/09/12 00:04:13;;;;;;;36.01;25.41;;;;;;;;;;379516;138;856744;-58
2021/09/12 00:05:14;;;;;;;37.26;24.59;;;;;;;;;;373847;142;857122;-57
2021/09/12 00:06:16;;;;;;;37.06;24.33;;;;;;;;;;372997;142;856067;-58
2021/09/12 00:07:18;;;;;;;38.15;24.77;;;;;;;;;;371586;141;856454;-58
2021/09/12 00:08:19;;;;;;;37.06;25.84;;;;;;;;;;373731;141;856291;-58
2021/09/12 00:09:21;;;;;;;32.66;23.51;;;;;;;;;;365394;144;856218;-58
2021/09/12 00:10:23;;;;;;;33.80;23.47;;;;;;;;;;364392;147;856127;-58
2021/09/12 00:11:24;;;;;;;39.95;23.99;;;;;;;;;;366728;144;864144;-58
2021/09/12 00:12:26;;;;;;;38.79;25.01;;;;;;;;;;366554;144;856241;-58
2021/09/12 00:13:27;;;;;;;33.51;23.05;;;;;;;;;;365079;144;856079;-58
2021/09/12 00:14:29;;;;;;;31.67;23.04;;;;;;;;;;361948;144;863788;-58
2021/09/12 00:15:31;;;;;;;34.18;22.49;;;;;;;;;;363253;144;863762;-58
2021/09/12 00:16:33;;;;;;;34.41;22.89;;;;;;;;;;368442;144;856463;-58
2021/09/12 00:17:34;;;;;;;31.41;23.22;;;;;;;;;;367183;144;856223;-58
2021/09/12 00:18:36;;;;;;;36.36;22.18;;;;;;;;;;373030;142;856155;-58
2021/09/12 00:19:37;;;;;;;33.17;23.34;;;;;;;;;;374131;142;856213;-58
2021/09/12 00:20:39;;;;;;;32.90;23.20;;;;;;;;;;373988;141;856543;-58
2021/09/12 00:21:41;;;;;;;29.11;22.63;;;;;;;;;;372178;142;856090;-58
2021/09/12 00:22:42;;;;;;;34.49;22.64;;;;;;;;;;374128;141;856200;-58
2021/09/12 00:23:44;;;;;;;30.18;22.13;;;;;;;;;;373021;142;857482;-58
2021/09/12 00:24:45;;;;;;;30.96;22.27;;;;;;;;;;375978;141;856091;-58
2021/09/12 00:25:47;;;;;;;31.71;23.49;;;;;;;;;;366481;144;863873;-58
2021/09/12 00:26:50;;;;;;;34.98;23.71;;;;;;;;;;373251;141;856391;-58
2021/09/12 00:27:52;;;;;;;31.08;22.23;;;;;;;;;;372104;142;856631;-58
2021/09/12 00:28:53;;;;;;;32.53;22.00;;;;;;;;;;366150;147;858817;-59
2021/09/12 00:29:56;;;;;;;32.78;22.24;;;;;;;;;;373582;141;856866;-57
2021/09/12 00:30:58;;;;;;;33.54;22.76;;;;;;;;;;372772;142;865364;-58
2021/09/12 00:32:00;;;;;;;36.61;24.12;;;;;;;;;;374019;141;856287;-57
2021/09/12 00:33:01;;;;;;;31.71;23.07;;;;;;;;;;377192;141;864325;-58
2021/09/12 00:34:03;;;;;;;38.42;23.18;;;;;;;;;;372866;141;856803;-58
2021/09/12 00:35:05;;;;;;;30.29;22.49;;;;;;;;;;371869;142;863660;-57
2021/09/12 00:36:07;;;;;;;30.43;21.79;;;;;;;;;;374071;141;856402;-58
2021/09/12 00:37:09;;;;;;;32.71;22.36;;;;;;;;;;373347;142;856239;-58
2021/09/12 00:38:12;;;;;;;27.09;21.01;;;;;;;;;;374061;141;857017;-58
2021/09/12 00:39:14;;;;;;;30.45;20.29;;;;;;;;;;371885;141;856248;-58
2021/09/12 00:40:20;;;;;;;29.65;20.72;;;;;;;;;;374192;141;856781;-58
2021/09/12 00:41:22;;;;;;;33.83;22.46;;;;;;;;;;373405;141;856297;-58
2021/09/12 00:42:23;;;;;;;31.36;21.22;;;;;;;;;;372572;142;856110;-58
2021/09/12 00:43:26;;;;;;;27.99;20.64;;;;;;;;;;375803;141;863919;-58
2021/09/12 00:44:27;;;;;;;37.82;21.49;;;;;;;;;;373539;141;863998;-58
2021/09/12 00:45:29;;;;;;;32.65;20.68;;;;;;;;;;375082;141;856953;-59
2021/09/12 00:46:33;;;;;;;31.29;21.01;;;;;;;;;;370247;142;857285;-58
2021/09/12 00:47:34;;;;;;;30.10;21.82;;;;;;;;;;369555;141;863919;-58
2021/09/12 00:48:36;;;;;;;32.83;22.03;;;;;;;;;;366502;140;863818;-58
2021/09/12 00:49:38;;;;;;;29.94;21.39;;;;;;;;;;369313;144;856108;-58
2021/09/12 00:50:41;;;;;;;32.32;21.86;;;;;;;;;;370894;143;863802;-58
2021/09/12 00:51:43;;;;;;;34.58;21.50;;;;;;;;;;375567;141;857590;-58
2021/09/12 00:52:44;;;;;;;34.62;21.78;;;;;;;;;;373521;141;863637;-58
2021/09/12 00:53:46;;;;;;;33.38;22.49;;;;;;;;;;373411;141;856237;-58
2021/09/12 00:54:48;;;;;;;32.73;21.41;;;;;;;;;;370010;141;856203;-58
2021/09/12 00:55:50;;;;;;;38.65;22.11;;;;;;;;;;374892;141;856305;-58
2021/09/12 00:56:52;;;;;;;27.74;20.95;;;;;;;;;;375391;141;856212;-59
2021/09/12 00:57:54;;;;;;;30.71;22.07;;;;;;;;;;373277;144;856274;-58
2021/09/12 00:58:55;;;;;;;41.66;22.79;;;;;;;;;;363277;143;857650;-58
2021/09/12 00:59:57;;;;;;;35.00;22.23;;;;;;;;;;369593;143;857325;-58
2021/09/12 01:00:59;;;;;;;34.66;22.30;;;;;;;;;;369141;143;863556;-58
2021/09/12 01:02:01;;;;;;;29.09;21.36;;;;;;;;;;388467;138;856068;-58
2021/09/12 01:03:02;;;;;;;33.41;21.09;;;;;;;;;;387706;136;856809;-58
2021/09/12 01:04:04;;;;;;;32.76;21.71;;;;;;;;;;387361;138;856581;-58
2021/09/12 01:05:06;;;;;;;30.19;21.40;;;;;;;;;;388804;137;863743;-58
2021/09/12 01:06:08;;;;;;;34.36;22.04;;;;;;;;;;387367;138;863800;-58
2021/09/12 01:07:10;;;;;;;29.81;21.30;;;;;;;;;;388791;136;857006;-58
2021/09/12 01:08:11;;;;;;;31.78;21.22;;;;;;;;;;385987;135;856176;-58
2021/09/12 01:09:13;;;;;;;31.11;21.68;;;;;;;;;;386020;136;856132;-58
2021/09/12 01:10:16;;;;;;;31.58;20.89;;;;;;;;;;389013;136;863870;-58
2021/09/12 01:11:18;;;;;;;31.44;20.93;;;;;;;;;;387332;136;856681;-58
2021/09/12 01:12:19;;;;;;;30.72;21.01;;;;;;;;;;388523;138;857581;-58
2021/09/12 01:13:21;;;;;;;32.72;21.16;;;;;;;;;;389408;137;856194;-58
2021/09/12 01:14:23;;;;;;;29.49;20.83;;;;;;;;;;389462;136;864009;-58
2021/09/12 01:15:26;;;;;;;32.07;20.07;;;;;;;;;;377445;139;864404;-59
2021/09/12 01:20:04;;;;;;;34.31;20.72;;;;;;;11.99;64.36;99900.41;367254;142;881201;-59
2021/09/12 01:21:09;;;;;;;29.76;19.92;;;;;;;11.89;64.26;99904.85;362138;147;858017;-58
2021/09/12 01:22:11;;;;;;;32.74;20.51;;;;;;;11.87;64.24;99905.77;362962;146;856448;-59
2021/09/12 01:23:13;;;;;;;30.09;21.03;;;;;;;11.82;64.12;99909.28;363006;147;856690;-59
2021/09/12 01:24:14;;;;;;;29.51;21.80;;;;;;;11.78;64.19;99909.33;363725;147;863748;-59
2021/09/12 01:25:16;;;;;;;32.16;22.16;;;;;;;11.72;64.35;99912.88;364854;146;863967;-59
2021/09/12 01:26:21;;;;;;;30.21;21.30;;;;;;;11.66;64.64;99908.62;362118;146;864143;-59
2021/09/12 01:27:23;;;;;;;32.76;21.29;;;;;;;11.62;64.57;99911.26;362674;147;856894;-60
2021/09/12 01:28:25;;;;;;;32.35;22.18;;;;;;;11.60;64.75;99907.83;364707;147;864069;-59
2021/09/12 01:29:27;;;;;;;29.43;22.11;;;;;;;11.59;64.93;99911.30;364452;146;856895;-59
2021/09/12 01:30:29;;;;;;;30.95;21.06;;;;;;;11.59;65.03;99909.58;362329;146;863749;-59
2021/09/12 01:31:32;;;;;;;32.55;21.67;;;;;;;11.60;65.12;99907.83;365632;147;864416;-59
2021/09/12 01:32:34;;;;;;;30.99;21.65;;;;;;;11.60;65.07;99910.42;363562;146;856182;-59
2021/09/12 01:33:35;;;;;;;28.15;20.74;;;;;;;11.58;64.95;99904.39;364934;146;857811;-59
2021/09/12 01:34:37;;;;;;;33.97;21.78;;;;;;;11.55;64.99;99906.15;363822;147;864455;-58
2021/09/12 01:35:39;;;;;;;29.74;20.83;;;;;;;11.53;65.10;99909.66;365331;147;863753;-59
2021/09/12 01:36:42;;;;;;;33.48;21.73;;;;;;;11.51;65.20;99907.06;362500;146;863774;-59
2021/09/12 01:37:44;;;;;;;32.79;21.92;;;;;;;11.49;65.24;99905.38;361609;146;856191;-59
2021/09/12 01:38:45;;;;;;;31.69;21.28;;;;;;;11.39;65.27;99899.44;357624;147;863871;-59
2021/09/12 01:39:47;;;;;;;27.71;21.00;;;;;;;11.39;65.27;99899.44;358505;147;863797;-58
2021/09/12 01:40:49;;;;;;;34.17;21.83;;;;;;;11.43;65.41;99902.87;356874;147;856377;-59
2021/09/12 01:41:51;;;;;;;30.13;21.56;;;;;;;11.41;65.51;99908.05;356545;147;857169;-59
2021/09/12 01:42:52;;;;;;;30.36;21.06;;;;;;;11.40;65.52;99902.03;361641;147;864001;-59
2021/09/12 01:43:56;;;;;;;29.39;21.69;;;;;;;11.40;65.59;99907.22;355961;147;864068;-59
2021/09/12 01:44:58;;;;;;;29.74;20.81;;;;;;;11.40;65.73;99904.63;357337;147;864014;-59
2021/09/12 01:46:00;;;;;;;35.38;21.43;;;;;;;11.39;65.84;99902.03;358238;147;856268;-59
2021/09/12 01:47:02;;;;;;;30.83;21.61;;;;;;;;;;356988;147;863413;-58
2021/09/12 01:48:03;;;;;;;32.25;22.39;;;;;;;;;;356574;147;856345;-58
2021/09/12 01:49:05;;;;;;;34.36;21.24;;;;;;;;;;354458;148;856426;-59
2021/09/12 01:50:07;;;;;;;32.33;22.13;;;;;;;;;;355731;147;856856;-59
2021/09/12 01:51:09;;;;;;;32.90;21.86;;;;;;;;;;356570;147;856115;-59
2021/09/12 01:52:11;;;;;;;32.06;21.99;;;;;;;;;;357028;147;863319;-58
2021/09/12 01:53:13;;;;;;;34.72;22.57;;;;;;;;;;357461;147;863795;-59
2021/09/12 01:54:14;;;;;;;29.96;20.69;;;;;;;;;;357772;147;856791;-58
2021/09/12 01:55:16;;;;;;;32.45;21.19;;;;;;;;;;359556;147;856325;-59
2021/09/12 01:56:18;;;;;;;32.55;22.32;;;;;;;;;;358167;147;856350;-59
2021/09/12 01:57:20;;;;;;;33.50;22.39;;;;;;;;;;356403;147;856215;-59
2021/09/12 01:58:21;;;;;;;34.31;21.96;;;;;;;;;;356556;147;856120;-59
2021/09/12 01:59:23;;;;;;;28.79;21.47;;;;;;;;;;355928;149;856783;-59
2021/09/12 02:00:25;;;;;;;33.71;21.74;;;;;;;;;;354861;147;856072;-59
2021/09/12 02:01:27;;;;;;;27.98;20.74;;;;;;;;;;353051;150;856094;-59
2021/09/12 02:02:28;;;;;;;33.33;21.27;;;;;;;;;;355887;148;864053;-60
2021/09/12 02:03:30;;;;;;;41.27;21.71;;;;;;;;;;358288;147;856398;-59
2021/09/12 02:04:31;;;;;;;31.24;20.89;;;;;;;;;;357082;147;856454;-58
2021/09/12 02:05:33;;;;;;;30.64;21.77;;;;;;;;;;357999;147;856266;-59
2021/09/12 02:06:36;;;;;;;32.36;21.07;;;;;;;;;;355114;147;856391;-59
2021/09/12 02:07:37;;;;;;;32.69;21.69;;;;;;;;;;355502;147;856312;-59
2021/09/12 02:08:39;;;;;;;31.77;21.74;;;;;;;;;;358515;149;863562;-59
2021/09/12 02:09:41;;;;;;;35.41;21.38;;;;;;;;;;355971;147;856145;-59
2021/09/12 02:10:43;;;;;;;31.88;21.80;;;;;;;;;;358006;149;856366;-59
2021/09/12 02:11:45;;;;;;;30.85;21.86;;;;;;;;;;358357;150;863728;-58
2021/09/12 02:12:46;;;;;;;29.31;15.17;;;;;;;;;;358215;147;857930;-59
2021/09/12 02:13:48;;;;;;;29.97;21.06;;;;;;;;;;357495;148;864097;-59
2021/09/12 02:14:50;;;;;;;27.88;20.64;;;;;;;;;;354651;149;856420;-59
2021/09/12 02:15:51;;;;;;;31.46;20.85;;;;;;;;;;353913;150;864010;-59
2021/09/12 02:16:55;;;;;;;29.65;21.62;;;;;;;;;;356272;149;856312;-59
2021/09/12 02:17:56;;;;;;;32.03;21.76;;;;;;;;;;356064;147;856503;-59
2021/09/12 02:18:58;;;;;;;29.23;21.16;;;;;;;;;;362962;147;856303;-58
2021/09/12 02:20:00;;;;;;;30.86;21.70;;;;;;;;;;359174;147;864149;-59
2021/09/12 02:21:01;;;;;;;33.73;21.80;;;;;;;;;;355952;147;856255;-59
2021/09/12 02:22:03;;;;;;;33.64;21.34;;;;;;;;;;355623;149;856112;-58
2021/09/12 02:23:05;;;;;;;39.11;22.70;;;;;;;;;;360956;147;856751;-59
2021/09/12 02:24:06;;;;;;;35.69;21.72;;;;;;;;;;356382;147;863608;-59
2021/09/12 02:25:08;;;;;;;34.16;21.94;;;;;;;;;;356585;147;856203;-58
2021/09/12 02:26:10;;;;;;;34.73;21.81;;;;;;;;;;356884;148;863919;-58
2021/09/12 02:27:12;;;;;;;29.39;21.26;;;;;;;;;;360138;147;856584;-58
2021/09/12 02:28:14;;;;;;;31.38;21.03;;;;;;;;;;356353;147;863949;-58
2021/09/12 02:29:15;;;;;;;31.78;21.61;;;;;;;;;;356298;148;856177;-59
2021/09/12 02:30:18;;;;;;;31.49;22.07;;;;;;;;;;358436;147;856183;-58
2021/09/12 02:31:19;;;;;;;31.96;21.28;;;;;;;;;;357466;147;856263;-58
2021/09/12 02:32:21;;;;;;;35.65;21.63;;;;;;;;;;356663;147;856777;-60
2021/09/12 02:33:22;;;;;;;33.94;23.26;;;;;;;;;;353935;149;856626;-59
2021/09/12 02:34:24;;;;;;;31.91;21.81;;;;;;;;;;360336;147;863515;-59
2021/09/12 02:35:25;;;;;;;33.11;23.47;;;;;;;;;;358012;147;856515;-58
2021/09/12 02:36:28;;;;;;;35.87;22.70;;;;;;;;;;355842;148;856526;-59
2021/09/12 02:37:29;;;;;;;33.01;22.94;;;;;;;;;;346588;150;856166;-58
2021/09/12 02:38:31;;;;;;;33.35;22.54;;;;;;;;;;357808;147;856415;-58
2021/09/12 02:39:33;;;;;;;31.91;22.20;;;;;;;;;;356307;147;856654;-58
2021/09/12 02:40:36;;;;;;;33.13;22.53;;;;;;;;;;355018;147;864278;-58
2021/09/12 02:41:38;;;;;;;32.04;22.10;;;;;;;;;;356464;147;856162;-59
2021/09/12 02:42:39;;;;;;;32.06;22.42;;;;;;;;;;357516;147;856142;-59
2021/09/12 02:43:41;;;;;;;32.13;21.85;;;;;;;;;;356537;147;856068;-58
2021/09/12 02:44:43;;;;;;;31.16;22.19;;;;;;;;;;358319;147;856063;-58
2021/09/12 02:45:44;;;;;;;31.16;22.44;;;;;;;;;;363177;147;863828;-59
2021/09/12 02:46:47;;;;;;;30.29;21.71;;;;;;;;;;357006;147;857040;-58
2021/09/12 02:47:48;;;;;;;32.39;22.46;;;;;;;;;;357918;147;856413;-59
2021/09/12 02:48:50;;;;;;;34.46;23.06;;;;;;;;;;358574;149;856668;-57
2021/09/12 02:49:51;;;;;;;31.84;23.19;;;;;;;;;;356328;149;856721;-59
2021/09/12 02:50:53;;;;;;;34.11;22.61;;;;;;;;;;356754;148;856547;-59
2021/09/12 02:51:55;;;;;;;32.62;21.78;;;;;;;;;;357147;147;856735;-58
2021/09/12 02:52:56;;;;;;;30.41;21.33;;;;;;;;;;357843;150;856426;-58
2021/09/12 02:53:58;;;;;;;31.56;21.54;;;;;;;;;;357504;147;856334;-58
2021/09/12 02:54:59;;;;;;;29.63;21.39;;;;;;;;;;356394;147;856722;-58
2021/09/12 02:56:01;;;;;;;30.98;21.83;;;;;;;;;;357205;147;856111;-58
2021/09/12 02:57:03;;;;;;;32.79;21.86;;;;;;;;;;362736;147;863811;-58
2021/09/12 02:58:04;;;;;;;30.08;22.23;;;;;;;;;;357963;147;856147;-58
2021/09/12 02:59:06;;;;;;;33.61;21.79;;;;;;;;;;358366;147;856110;-58
2021/09/12 03:00:08;;;;;;;32.45;21.29;;;;;;;;;;361908;147;856299;-58
2021/09/12 03:01:10;;;;;;;30.87;22.56;;;;;;;;;;357595;148;856347;-58
2021/09/12 03:02:11;;;;;;;31.05;22.59;;;;;;;;;;357966;148;857111;-58
2021/09/12 03:03:13;;;;;;;29.47;21.31;;;;;;;;;;359308;147;856041;-58
2021/09/12 03:04:14;;;;;;;28.19;20.29;;;;;;;;;;359619;147;856869;-58
2021/09/12 03:05:16;;;;;;;29.31;21.44;;;;;;;;;;357888;147;856697;-59
2021/09/12 03:06:19;;;;;;;33.02;22.29;;;;;;;;;;355234;147;856257;-58
2021/09/12 03:07:21;;;;;;;31.40;22.24;;;;;;;;;;361319;147;856258;-60
2021/09/12 03:08:23;;;;;;;30.06;22.51;;;;;;;;;;356606;147;856450;-59
2021/09/12 03:09:24;;;;;;;36.64;22.49;;;;;;;;;;357873;147;856274;-59
2021/09/12 03:10:26;;;;;;;34.99;22.61;;;;;;;;;;355627;148;864072;-59
2021/09/12 03:11:28;;;;;;;30.04;22.04;;;;;;;;;;356944;147;863840;-59
2021/09/12 03:12:29;;;;;;;27.86;21.45;;;;;;;;;;356328;148;856240;-60
2021/09/12 03:13:31;;;;;;;29.97;22.18;;;;;;;;;;355681;147;856544;-59
2021/09/12 03:14:32;;;;;;;34.21;22.47;;;;;;;;;;357351;147;856166;-59
2021/09/12 03:15:34;;;;;;;37.45;23.73;;;;;;;;;;356868;147;856119;-60
2021/09/12 03:16:36;;;;;;;33.39;22.67;;;;;;;;;;356412;149;867143;-60
2021/09/12 03:17:37;;;;;;;34.79;24.59;;;;;;;;;;358195;147;856448;-60
2021/09/12 03:18:39;;;;;;;33.62;22.27;;;;;;;;;;356898;148;856102;-60
2021/09/12 03:19:40;;;;;;;30.92;22.39;;;;;;;;;;357373;147;856196;-59
2021/09/12 03:20:42;;;;;;;33.75;23.36;;;;;;;;;;356766;147;856492;-59
2021/09/12 03:21:44;;;;;;;30.52;21.71;;;;;;;;;;350003;151;863776;-59
2021/09/12 03:22:45;;;;;;;32.78;21.79;;;;;;;;;;347051;148;856635;-59
2021/09/12 03:23:47;;;;;;;31.46;22.99;;;;;;;;;;354792;148;863351;-59
2021/09/12 03:24:48;;;;;;;32.26;21.54;;;;;;;;;;354395;148;856682;-58
2021/09/12 03:25:50;;;;;;;31.24;21.56;;;;;;;;;;352450;150;856346;-59
2021/09/12 03:26:52;;;;;;;27.55;21.03;;;;;;;;;;355670;148;856327;-60
2021/09/12 03:27:53;;;;;;;31.61;21.39;;;;;;;;;;355326;148;856305;-59
2021/09/12 03:28:55;;;;;;;32.26;21.81;;;;;;;;;;359053;148;856808;-59
2021/09/12 03:29:57;;;;;;;28.11;21.23;;;;;;;;;;358918;148;856277;-59
2021/09/12 03:30:58;;;;;;;30.12;21.01;;;;;;;;;;354611;148;864527;-58
2021/09/12 03:32:01;;;;;;;34.88;23.16;;;;;;;;;;354375;150;864633;-59
2021/09/12 03:33:02;;;;;;;33.29;22.55;;;;;;;;;;352347;150;856737;-58
2021/09/12 03:34:04;;;;;;;31.84;21.94;;;;;;;;;;361565;148;856084;-58
2021/09/12 03:35:05;;;;;;;31.00;21.61;;;;;;;;;;354455;148;856298;-59
2021/09/12 03:36:08;;;;;;;32.78;21.29;;;;;;;;;;352675;150;856962;-59
2021/09/12 03:37:10;;;;;;;32.27;22.05;;;;;;;;;;356025;148;863914;-58
2021/09/12 03:38:12;;;;;;;29.86;22.38;;;;;;;;;;354600;149;856481;-59
2021/09/12 03:39:13;;;;;;;33.82;22.81;;;;;;;;;;354332;150;856321;-58
2021/09/12 03:40:15;;;;;;;35.44;22.09;;;;;;;;;;356803;148;856054;-58
2021/09/12 03:41:17;;;;;;;32.05;21.54;;;;;;;;;;356553;148;856161;-59
2021/09/12 03:42:18;;;;;;;33.64;22.48;;;;;;;;;;355116;148;856342;-59
2021/09/12 03:43:20;;;;;;;31.31;21.90;;;;;;;;;;351466;150;856362;-59
2021/09/12 03:44:21;;;;;;;36.22;22.34;;;;;;;;;;352205;148;856583;-60
2021/09/12 03:45:23;;;;;;;33.03;22.86;;;;;;;;;;356763;148;856622;-59
2021/09/12 03:46:26;;;;;;;33.58;22.60;;;;;;;;;;354202;148;864384;-59
2021/09/12 03:47:28;;;;;;;28.11;21.51;;;;;;;;;;351805;150;856593;-60
2021/09/12 03:48:29;;;;;;;30.77;21.20;;;;;;;;;;354195;150;857124;-59
2021/09/12 03:49:31;;;;;;;32.81;22.66;;;;;;;;;;354777;150;856268;-59
2021/09/12 03:50:34;;;;;;;34.98;22.71;;;;;;;;;;352447;150;863746;-60
2021/09/12 03:51:35;;;;;;;33.78;22.07;;;;;;;;;;347274;148;856200;-60
2021/09/12 03:52:38;;;;;;;36.53;21.42;;;;;;;;;;354956;148;858725;-60
2021/09/12 03:53:39;;;;;;;34.05;21.86;;;;;;;;;;354578;148;856656;-59
2021/09/12 03:54:41;;;;;;;30.41;22.24;;;;;;;;;;357851;148;856044;-60
2021/09/12 03:55:43;;;;;;;32.92;23.38;;;;;;;;;;354230;148;858631;-60
2021/09/12 03:56:45;;;;;;;31.39;22.65;;;;;;;;;;356391;150;863572;-59
2021/09/12 03:57:46;;;;;;;29.55;21.54;;;;;;;;;;353188;148;857008;-60
2021/09/12 03:58:48;;;;;;;34.35;22.86;;;;;;;;;;354525;150;858975;-59
2021/09/12 03:59:52;;;;;;;29.23;21.78;;;;;;;;;;354134;148;863805;-58
2021/09/12 04:00:55;;;;;;;34.07;22.42;;;;;;;;;;353293;148;856354;-59
2021/09/12 04:01:56;;;;;;;32.37;22.98;;;;;;;;;;355604;148;857138;-59
2021/09/12 04:02:58;;;;;;;35.95;23.30;;;;;;;;;;355191;148;863813;-59
2021/09/12 04:03:59;;;;;;;29.82;21.81;;;;;;;;;;357857;148;864047;-61
2021/09/12 04:05:01;;;;;;;29.10;21.98;;;;;;;;;;353175;148;856476;-59
2021/09/12 04:06:03;;;;;;;33.29;22.02;;;;;;;;;;356094;148;856205;-59
2021/09/12 04:07:04;;;;;;;30.14;22.92;;;;;;;;;;356436;148;856212;-59
2021/09/12 04:08:06;;;;;;;31.69;22.77;;;;;;;;;;355116;149;863818;-60
2021/09/12 04:09:07;;;;;;;29.81;22.61;;;;;;;;;;355547;148;856605;-58
2021/09/12 04:10:09;;;;;;;32.15;21.82;;;;;;;;;;353290;151;857327;-58
2021/09/12 04:11:11;;;;;;;32.01;23.16;;;;;;;;;;353901;150;856452;-56
2021/09/12 04:12:12;;;;;;;34.09;23.69;;;;;;;;;;353394;150;856617;-59
2021/09/12 04:13:14;;;;;;;32.43;22.72;;;;;;;;;;355388;150;856103;-58
2021/09/12 04:14:15;;;;;;;33.95;23.21;;;;;;;;;;353590;151;856110;-58
2021/09/12 04:15:17;;;;;;;33.69;24.76;;;;;;;;;;348127;153;863758;-59
2021/09/12 04:16:20;;;;;;;34.16;24.87;;;;;;;;;;344003;154;856173;-58
2021/09/12 04:17:22;;;;;;;37.36;25.03;;;;;;;;;;342391;154;856548;-59
2021/09/12 04:20:13;;;;;;;36.96;23.99;;;;;;;11.94;65.92;99884.05;371678;141;881370;-59
2021/09/12 04:21:15;;;;;;;40.18;25.07;;;;;;;11.90;65.91;99893.59;364645;144;856039;-59
2021/09/12 04:22:16;;;;;;;34.57;25.91;;;;;;;11.94;65.93;99891.83;366056;145;863644;-59
2021/09/12 04:23:18;;;;;;;36.52;24.99;;;;;;;11.98;66.02;99890.91;362965;144;864662;-58
2021/09/12 04:24:21;;;;;;;33.46;24.88;;;;;;;12.16;65.57;99901.92;362005;145;864191;-58
2021/09/12 04:25:22;;;;;;;40.61;26.12;;;;;;;12.16;65.57;99901.92;361458;146;863796;-59
2021/09/12 04:26:25;;;;;;;31.92;24.11;;;;;;;12.16;65.89;99891.54;362045;145;856215;-58
2021/09/12 04:27:27;;;;;;;36.17;25.09;;;;;;;12.18;65.96;99888.02;364237;145;856604;-59
2021/09/12 04:28:28;;;;;;;30.96;23.92;;;;;;;12.26;65.91;99893.11;363084;147;863713;-59
2021/09/12 04:29:30;;;;;;;32.60;23.85;;;;;;;12.39;65.79;99845.29;364421;145;863815;-58
2021/09/12 04:30:32;;;;;;;36.55;25.65;;;;;;;12.39;65.79;99845.29;361883;145;863318;-59
2021/09/12 04:31:34;;;;;;;33.16;25.12;;;;;;;12.44;65.96;99888.50;364912;146;856150;-58
2021/09/12 04:32:36;;;;;;;33.51;24.43;;;;;;;12.46;66.23;99885.01;362334;146;863578;-60
2021/09/12 04:33:37;;;;;;;36.68;24.59;;;;;;;12.50;66.49;99890.98;363142;144;863774;-57
2021/09/12 04:34:39;;;;;;;29.91;23.01;;;;;;;12.56;66.54;99894.35;362564;144;863638;-58
2021/09/12 04:35:41;;;;;;;30.89;23.12;;;;;;;12.62;66.63;99893.38;362302;146;856731;-59
2021/09/12 04:36:43;;;;;;;30.00;21.98;;;;;;;12.70;66.60;99888.06;362863;145;863820;-59
2021/09/12 04:37:45;;;;;;;29.27;22.05;;;;;;;12.77;66.41;99891.42;363934;144;856327;-59
2021/09/12 13:30:55;;;;;;;11.69;8.62;;;;;;;45.52;9.52;99678.30;372051;142;878400;-65
2021/09/12 13:31:57;;;;;;;11.32;7.59;;;;;;;45.56;9.91;99684.08;345140;147;856616;-66
2021/09/12 13:33:01;;;;;;;8.65;6.46;;;;;;;45.47;9.75;99681.78;344080;153;856873;-66
2021/09/12 13:34:03;;;;;;;9.15;6.66;;;;;;;45.85;9.51;99683.98;340842;154;863892;-66
2021/09/12 13:35:06;;;;;;;9.83;6.75;;;;;;;46.06;9.26;99683.16;343476;153;856506;-64
2021/09/12 13:36:08;;;;;;;10.48;6.51;;;;;;;46.33;9.03;99685.13;344166;153;863830;-64
2021/09/12 13:37:10;;;;;;;9.61;6.36;;;;;;;46.63;8.99;99683.02;343787;151;863950;-66
2021/09/12 13:38:12;;;;;;;10.55;7.08;;;;;;;46.79;8.81;99678.52;346342;153;864028;-66
2021/09/12 13:39:16;;;;;;;11.70;6.86;;;;;;;46.77;8.43;99675.22;348215;150;863917;-66
2021/09/12 13:40:19;;;;;;;9.42;7.04;;;;;;;45.89;8.68;99680.47;347080;149;865281;-64
2021/09/12 13:41:23;;;;;;;7.94;6.29;;;;;;;45.27;9.30;99675.98;347649;153;857499;-64
2021/09/12 13:42:25;;;;;;;11.19;6.64;;;;;;;44.77;9.81;99679.23;347713;151;856773;-64
2021/09/12 13:43:27;;;;;;;9.19;6.77;;;;;;;44.94;9.88;99460.98;347391;151;856434;-65
2021/09/12 13:44:28;;;;;;;9.24;6.36;;;;;;;;;;347942;152;857333;-65
2021/09/12 13:45:30;;;;;;;10.31;6.63;;;;;;;;;;347756;151;864215;-65
2021/09/12 13:46:33;;;;;;;11.20;7.63;;;;;;;;;;347443;151;856655;-65
2021/09/12 13:47:34;;;;;;;8.73;6.94;;;;;;;;;;342368;153;856934;-64
2021/09/12 13:48:38;;;;;;;9.00;6.54;;;;;;;;;;341654;156;864522;-64
2021/09/12 13:49:40;;;;;;;10.34;6.60;;;;;;;;;;338643;155;864122;-65
2021/09/12 13:50:43;;;;;;;10.14;7.12;;;;;;;;;;337362;156;856600;-64
2021/09/12 13:51:45;;;;;;;10.79;6.71;;;;;;;;;;334646;160;856421;-64
2021/09/12 13:52:46;;;;;;;10.69;6.96;;;;;;;;;;343957;153;856460;-64
2021/09/12 13:53:50;;;;;;;11.35;6.70;;;;;;;;;;342334;154;864203;-65
2021/09/12 13:54:59;;;;;;;10.17;6.53;;;;;;;;;;348546;152;856437;-64
2021/09/12 13:56:03;;;;;;;9.48;6.35;;;;;;;;;;346385;152;856598;-65
2021/09/12 13:57:07;;;;;;;8.00;6.22;;;;;;;;;;343520;152;856603;-64
2021/09/12 13:58:08;;;;;;;9.39;6.63;;;;;;;;;;343387;153;856437;-65
2021/09/12 13:59:10;;;;;;;10.09;6.77;;;;;;;;;;343041;155;857891;-65
2021/09/12 14:00:13;;;;;;;8.46;6.28;;;;;;;;;;343878;152;856639;-65
2021/09/12 14:01:15;;;;;;;9.49;6.39;;;;;;;;;;341935;153;856451;-65
2021/09/12 14:02:16;;;;;;;9.51;6.83;;;;;;;;;;341348;155;863728;-64
2021/09/12 14:03:20;;;;;;;10.87;6.34;;;;;;;;;;341328;155;864895;-64
2021/09/12 14:04:21;;;;;;;9.97;6.15;;;;;;;;;;342136;154;856568;-64
2021/09/12 14:05:23;;;;;;;7.60;6.54;;;;;;;;;;343285;153;856509;-64
2021/09/12 14:06:25;;;;;;;8.98;6.57;;;;;;;;;;341814;155;857204;-64
2021/09/12 14:07:29;;;;;;;7.59;6.44;;;;;;;;;;344758;152;864085;-65
2021/09/12 14:08:31;;;;;;;14.24;6.93;;;;;;;;;;343607;153;857361;-64
2021/09/12 14:09:33;;;;;;;9.77;7.05;;;;;;;;;;343175;155;856622;-64
2021/09/12 14:10:36;;;;;;;7.05;6.02;;;;;;;;;;341055;153;864108;-64
2021/09/12 14:11:38;;;;;;;10.66;7.03;;;;;;;;;;343380;153;857225;-65
2021/09/12 14:12:40;;;;;;;7.61;6.42;;;;;;;;;;345140;154;856456;-64
2021/09/12 14:13:42;;;;;;;7.68;6.73;;;;;;;;;;343452;152;863820;-65
2021/09/12 14:14:43;;;;;;;7.32;6.11;;;;;;;;;;341811;153;856698;-64
2021/09/12 14:15:45;;;;;;;10.36;6.30;;;;;;;;;;343948;152;863787;-64
2021/09/12 14:16:48;;;;;;;8.09;6.69;;;;;;;;;;341091;155;856435;-65
2021/09/12 14:17:49;;;;;;;11.49;6.28;;;;;;;;;;345189;155;856370;-66
2021/09/12 14:18:51;;;;;;;8.11;6.63;;;;;;;;;;342280;155;856745;-66
2021/09/12 14:19:52;;;;;;;9.14;6.79;;;;;;;;;;342094;153;856984;-65
2021/09/12 14:20:54;;;;;;;8.73;6.43;;;;;;;;;;344631;155;856495;-65
2021/09/12 14:21:55;;;;;;;7.39;6.26;;;;;;;;;;345050;153;864097;-66
2021/09/12 14:22:57;;;;;;;9.54;6.59;;;;;;;;;;343648;153;856617;-65
2021/09/12 14:23:59;;;;;;;13.18;6.71;;;;;;;;;;341024;155;856335;-65
2021/09/12 14:25:01;;;;;;;8.19;6.32;;;;;;;;;;341041;155;856879;-65
2021/09/12 14:26:03;;;;;;;10.80;6.84;;;;;;;;;;342934;153;856427;-66
2021/09/12 14:27:04;;;;;;;7.80;6.24;;;;;;;;;;343318;153;856704;-65
2021/09/12 14:28:09;;;;;;;8.34;6.61;;;;;;;;;;342330;155;857041;-65
2021/09/12 14:29:11;;;;;;;8.16;6.54;;;;;;;;;;340618;152;863878;-65
2021/09/12 14:30:13;;;;;;;13.14;6.56;;;;;;;;;;343564;153;863895;-65
2021/09/12 14:31:18;;;;;;;8.93;6.05;;;;;;;;;;338761;153;856618;-65
2021/09/12 14:32:18;;;;;;;7.79;6.10;;;;;;;;;;337375;159;856307;-65
2021/09/12 14:33:20;;;;;;;11.40;6.19;;;;;;;;;;337631;154;856521;-65
2021/09/12 14:34:22;;;;;;;9.38;6.13;;;;;;;;;;340337;154;856565;-65
2021/09/12 14:35:24;;;;;;;8.49;6.13;;;;;;;;;;340886;156;856436;-65
2021/09/12 14:36:27;;;;;;;7.36;6.19;;;;;;;;;;338632;157;856410;-65
2021/09/12 14:37:28;;;;;;;11.24;6.21;;;;;;;;;;338627;154;856763;-65
2021/09/12 14:38:30;;;;;;;7.71;6.56;;;;;;;;;;340772;157;864068;-66